Ulverston, United Kingdom
Current Conditions -  °F | °C
As of 10:20 AM on Friday 21 Nov 2014 (Local Time) from EGNO Reporting Station
Scattered Clouds Scattered Clouds  
Wind Chill: 42°   Ceiling: Unl
Heat Index: 46°   Visibility: 4mi
Dew Point: 41°   Wind: 9mph
Humidity: 81%   Direction: 110°ESE
Pressure: 30.06"   Gusts: NA
Location:  54.2°N, 3.1°W
Report Text: EGNO 211020Z 11008KT 6000 SCT028 08/05 Q1018
Loading
Personal Weather Stations






























Interactive Weather Map New forecast layout! Learn more

10-Day Weather Forecast

Advertisements
Track Severe Weather on mobile